createdAt,value
2018-12-24T00:06:16.136Z,88.30
2018-12-24T00:16:31.972Z,88.30
2018-12-24T00:26:47.824Z,89.80
2018-12-24T00:37:03.455Z,89.00
2018-12-24T00:47:18.803Z,90.10
2018-12-24T00:57:34.552Z,90.00
2018-12-24T01:07:50.288Z,90.10
2018-12-24T01:18:05.757Z,89.40
2018-12-24T01:28:20.973Z,88.40
2018-12-24T01:38:36.155Z,87.80
2018-12-24T01:48:52.075Z,86.10
2018-12-24T01:59:07.739Z,86.00
2018-12-24T02:09:23.583Z,85.90
2018-12-24T02:30:13.321Z,83.60
2018-12-24T02:40:29.483Z,83.90
2018-12-24T02:50:44.728Z,83.60
2018-12-24T03:01:00.010Z,84.50
2018-12-24T03:11:15.878Z,83.10
2018-12-24T03:21:31.375Z,82.90
2018-12-24T03:31:46.973Z,80.80
2018-12-24T03:42:02.556Z,80.40
2018-12-24T03:52:17.832Z,80.10
2018-12-24T04:02:33.793Z,79.60
2018-12-24T04:12:49.567Z,79.10
2018-12-24T04:33:38.086Z,79.20
2018-12-24T04:54:27.578Z,78.60
2018-12-24T05:04:42.849Z,78.60
2018-12-24T05:14:58.699Z,78.30
2018-12-24T05:25:14.676Z,77.60
2018-12-24T05:35:30.408Z,78.00
2018-12-24T05:45:45.879Z,77.10
2018-12-24T05:56:01.497Z,76.80
2018-12-24T06:16:50.419Z,75.20
2018-12-24T06:27:05.916Z,75.10
2018-12-24T06:37:21.740Z,74.40
2018-12-24T06:47:37.675Z,74.30
2018-12-24T06:57:53.472Z,74.80
2018-12-24T07:08:08.934Z,74.80
2018-12-24T07:18:24.424Z,75.50
2018-12-24T07:39:13.302Z,74.80
2018-12-24T08:00:02.740Z,73.50
2018-12-24T08:10:18.772Z,72.70
2018-12-24T08:20:34.140Z,72.10
2018-12-24T08:30:49.680Z,73.10
2018-12-24T08:41:05.668Z,73.50
2018-12-24T08:51:21.140Z,72.30
2018-12-24T09:01:36.448Z,72.80
2018-12-24T09:11:52.393Z,71.80
2018-12-24T09:22:07.924Z,71.00
2018-12-24T09:42:57.279Z,70.80
2018-12-24T09:53:12.473Z,72.10
2018-12-24T10:03:15.970Z,71.50
2018-12-24T10:24:01.185Z,69.30
2018-12-24T10:34:23.964Z,68.90
2018-12-24T10:44:39.252Z,69.00
2018-12-24T10:54:54.604Z,68.70
2018-12-24T11:05:10.271Z,68.60
2018-12-24T11:15:25.914Z,68.10
2018-12-24T11:25:41.503Z,66.50
2018-12-24T11:35:57.000Z,65.70
2018-12-24T11:46:12.251Z,65.20
2018-12-24T11:56:27.629Z,64.70
2018-12-24T12:06:43.747Z,61.90
2018-12-24T12:16:59.540Z,62.20
2018-12-24T12:27:15.100Z,61.50
2018-12-24T12:48:04.717Z,62.00
2018-12-24T12:58:20.478Z,62.30
2018-12-24T13:19:10.073Z,63.20
2018-12-24T13:29:25.528Z,64.10
2018-12-24T13:39:41.232Z,63.20
2018-12-24T13:49:56.421Z,63.00
2018-12-24T14:00:12.011Z,63.30
2018-12-24T14:10:28.213Z,63.80
2018-12-24T14:20:44.263Z,63.50
2018-12-24T14:30:59.687Z,62.90
2018-12-24T14:41:15.066Z,63.20
2018-12-24T14:51:30.688Z,63.70
2018-12-24T15:01:45.938Z,63.60
2018-12-24T15:12:02.165Z,63.30
2018-12-24T15:22:18.264Z,64.10
2018-12-24T15:32:34.091Z,63.60
2018-12-24T15:42:50.160Z,64.20
2018-12-24T15:53:05.496Z,63.30
2018-12-24T16:03:21.261Z,63.50
2018-12-24T16:13:36.941Z,63.00
2018-12-24T16:23:52.629Z,63.50
2018-12-24T16:34:08.263Z,64.10
2018-12-24T16:44:23.931Z,64.80
2018-12-24T16:54:39.945Z,66.20
2018-12-24T17:04:56.904Z,66.80
2018-12-24T17:15:12.715Z,67.30
2018-12-24T17:25:28.394Z,67.70
2018-12-24T17:35:43.960Z,68.00
2018-12-24T17:45:59.527Z,67.90
2018-12-24T17:56:15.557Z,67.30
2018-12-24T18:17:04.800Z,66.90
2018-12-24T18:27:20.411Z,67.20
2018-12-24T18:48:09.196Z,66.80
2018-12-24T18:58:25.011Z,67.20
2018-12-24T19:08:40.780Z,66.30
2018-12-24T19:18:56.954Z,66.30
2018-12-24T19:29:12.485Z,65.30
2018-12-24T19:39:28.228Z,65.30
2018-12-24T19:49:44.030Z,65.50
2018-12-24T20:00:00.266Z,64.70
2018-12-24T20:10:16.107Z,65.20
2018-12-24T20:20:31.953Z,65.30
2018-12-24T20:41:21.096Z,63.70
2018-12-24T20:51:37.077Z,62.20
2018-12-24T21:01:52.824Z,62.10
2018-12-24T21:12:08.574Z,61.80
2018-12-24T21:32:57.912Z,61.70
2018-12-24T21:43:13.676Z,62.80
2018-12-24T21:53:29.560Z,62.70
2018-12-24T22:03:44.927Z,62.30
2018-12-24T22:14:00.797Z,62.30
2018-12-24T22:24:16.980Z,62.00
2018-12-24T22:45:05.898Z,63.30
2018-12-24T22:55:21.368Z,63.90
2018-12-24T23:05:37.148Z,64.90
2018-12-24T23:15:52.350Z,65.00
2018-12-24T23:36:41.216Z,65.00
2018-12-24T23:46:56.841Z,65.10
2018-12-24T23:57:12.592Z,65.60
